OAL210 LGAV-LGRP
Flight info
| Callsign | OAL210 |
|---|---|
| Flight time | 0h 45m |
| Altitude | 31000 |
| Route | KEA UL995 CODIC |
| Aircraft | B738/M-SDE2E3FGHIRWXY/LB1 |
Departure
| Time | 2026-05-04 09:25 |
|---|---|
| Airport | Athens Eleftherios Venizelos International Airport (LGAV) |
Arrival
| Time | 2026-05-04 10:10 |
|---|---|
| Airport | Rhodes International Airport "Diagoras" (LGRP) |
| Time | Latitude | Longitude | Altitude | Speed | Heading |
|---|---|---|---|---|---|
| 2026-05-04 09:17 | 37.93746 | 23.94978 | 300 ft | 0 kts | 306° |
| 2026-05-04 09:19 | 37.93741 | 23.94986 | 301 ft | 6 kts | 306° |
| 2026-05-04 09:20 | 37.93738 | 23.95049 | 299 ft | 0 kts | 259° |
| 2026-05-04 09:20 | 37.93737 | 23.95044 | 299 ft | 1 kts | 252° |
| 2026-05-04 09:20 | 37.93734 | 23.95037 | 299 ft | 4 kts | 242° |
| 2026-05-04 09:20 | 37.93691 | 23.95008 | 303 ft | 9 kts | 189° |
| 2026-05-04 09:21 | 37.93620 | 23.95017 | 300 ft | 12 kts | 153° |
| 2026-05-04 09:21 | 37.93534 | 23.95024 | 300 ft | 14 kts | 211° |
| 2026-05-04 09:21 | 37.93449 | 23.94952 | 300 ft | 14 kts | 198° |
| 2026-05-04 09:21 | 37.93355 | 23.94980 | 298 ft | 15 kts | 181° |
| 2026-05-04 09:22 | 37.93265 | 23.94916 | 300 ft | 15 kts | 216° |
| 2026-05-04 09:22 | 37.93177 | 23.94833 | 300 ft | 16 kts | 217° |
| 2026-05-04 09:22 | 37.93116 | 23.94775 | 300 ft | 17 kts | 217° |
| 2026-05-04 09:22 | 37.93017 | 23.94680 | 299 ft | 19 kts | 217° |
| 2026-05-04 09:23 | 37.92908 | 23.94576 | 303 ft | 20 kts | 217° |
| 2026-05-04 09:23 | 37.92794 | 23.94469 | 301 ft | 20 kts | 217° |
| 2026-05-04 09:23 | 37.92678 | 23.94360 | 302 ft | 21 kts | 217° |
| 2026-05-04 09:23 | 37.92552 | 23.94308 | 303 ft | 19 kts | 147° |
| 2026-05-04 09:25 | 37.96365 | 23.99346 | 3971 ft | 175 kts | 92° |
| 2026-05-04 09:25 | 37.95890 | 24.00912 | 4322 ft | 212 kts | 126° |
| 2026-05-04 09:26 | 37.94655 | 24.02115 | 4544 ft | 239 kts | 149° |
| 2026-05-04 09:26 | 37.93158 | 24.03191 | 4922 ft | 259 kts | 150° |
| 2026-05-04 09:26 | 37.91542 | 24.04333 | 5276 ft | 279 kts | 150° |
| 2026-05-04 09:26 | 37.89789 | 24.05571 | 6091 ft | 287 kts | 150° |
| 2026-05-04 09:27 | 37.88039 | 24.06809 | 7002 ft | 289 kts | 150° |
| 2026-05-04 09:27 | 37.86266 | 24.08068 | 7802 ft | 296 kts | 150° |
| 2026-05-04 09:27 | 37.84451 | 24.09363 | 8566 ft | 303 kts | 149° |
| 2026-05-04 09:27 | 37.82599 | 24.10683 | 9401 ft | 307 kts | 149° |
| 2026-05-04 09:28 | 37.80718 | 24.12030 | 10207 ft | 314 kts | 149° |
| 2026-05-04 09:28 | 37.78761 | 24.13433 | 10563 ft | 336 kts | 149° |
| 2026-05-04 09:28 | 37.76655 | 24.14943 | 10766 ft | 361 kts | 149° |
| 2026-05-04 09:28 | 37.74408 | 24.16552 | 11082 ft | 379 kts | 149° |
| 2026-05-04 09:29 | 37.72088 | 24.18210 | 11738 ft | 386 kts | 149° |
| 2026-05-04 09:29 | 37.69744 | 24.19883 | 12550 ft | 388 kts | 149° |
| 2026-05-04 09:29 | 37.67506 | 24.21480 | 13328 ft | 390 kts | 149° |
| 2026-05-04 09:29 | 37.65125 | 24.23182 | 14022 ft | 396 kts | 150° |
| 2026-05-04 09:30 | 37.62712 | 24.24905 | 14676 ft | 401 kts | 150° |
| 2026-05-04 09:30 | 37.60272 | 24.26645 | 15373 ft | 404 kts | 150° |
| 2026-05-04 09:30 | 37.57867 | 24.28487 | 16064 ft | 407 kts | 142° |
| 2026-05-04 09:30 | 37.55869 | 24.31015 | 16696 ft | 408 kts | 124° |
| 2026-05-04 09:31 | 37.54489 | 24.34129 | 17338 ft | 408 kts | 108° |
| 2026-05-04 09:31 | 37.53591 | 24.37521 | 18027 ft | 409 kts | 104° |
| 2026-05-04 09:31 | 37.52736 | 24.40948 | 18713 ft | 410 kts | 105° |
| 2026-05-04 09:31 | 37.51883 | 24.44366 | 19427 ft | 410 kts | 106° |
| 2026-05-04 09:32 | 37.51018 | 24.47795 | 19988 ft | 413 kts | 105° |
| 2026-05-04 09:32 | 37.50130 | 24.51267 | 20466 ft | 419 kts | 106° |
| 2026-05-04 09:34 | 37.43612 | 24.76170 | 23962 ft | 441 kts | 106° |
| 2026-05-04 09:34 | 37.42645 | 24.79837 | 24391 ft | 442 kts | 107° |
| 2026-05-04 09:34 | 37.41673 | 24.83519 | 24775 ft | 446 kts | 107° |
| 2026-05-04 09:34 | 37.40687 | 24.87247 | 25083 ft | 451 kts | 107° |
| 2026-05-04 09:35 | 37.39692 | 24.91007 | 25395 ft | 456 kts | 106° |
| 2026-05-04 09:35 | 37.38685 | 24.94804 | 25724 ft | 460 kts | 106° |
| 2026-05-04 09:35 | 37.37667 | 24.98638 | 26025 ft | 464 kts | 106° |
| 2026-05-04 09:35 | 37.36750 | 25.02087 | 26380 ft | 464 kts | 107° |
| 2026-05-04 09:37 | 37.29405 | 25.29586 | 28484 ft | 489 kts | 106° |
| 2026-05-04 09:37 | 37.28315 | 25.33644 | 28767 ft | 491 kts | 106° |
| 2026-05-04 09:38 | 37.27198 | 25.37684 | 29343 ft | 488 kts | 108° |
| 2026-05-04 09:38 | 37.25946 | 25.41641 | 29819 ft | 488 kts | 110° |
| 2026-05-04 09:38 | 37.24625 | 25.45583 | 30091 ft | 492 kts | 110° |
| 2026-05-04 09:38 | 37.23303 | 25.49555 | 30338 ft | 494 kts | 110° |
| 2026-05-04 09:39 | 37.21991 | 25.53540 | 30684 ft | 494 kts | 110° |
| 2026-05-04 09:39 | 37.20672 | 25.57520 | 31057 ft | 493 kts | 110° |
| 2026-05-04 09:39 | 37.18008 | 25.65510 | 31157 ft | 498 kts | 110° |
| 2026-05-04 09:40 | 37.16688 | 25.69461 | 31126 ft | 486 kts | 111° |
| 2026-05-04 09:40 | 37.15391 | 25.73332 | 31126 ft | 479 kts | 111° |
| 2026-05-04 09:40 | 37.12803 | 25.81050 | 31139 ft | 482 kts | 111° |
| 2026-05-04 09:42 | 37.02455 | 26.11763 | 31106 ft | 477 kts | 111° |
| 2026-05-04 09:43 | 36.99836 | 26.19499 | 31129 ft | 489 kts | 111° |
| 2026-05-04 09:43 | 36.97161 | 26.27369 | 31111 ft | 489 kts | 111° |
| 2026-05-04 09:44 | 36.94553 | 26.35062 | 31096 ft | 479 kts | 111° |
| 2026-05-04 09:46 | 36.84062 | 26.65809 | 31079 ft | 484 kts | 112° |
| 2026-05-04 09:46 | 36.81410 | 26.73524 | 31078 ft | 484 kts | 111° |
| 2026-05-04 09:47 | 36.80076 | 26.77404 | 30611 ft | 489 kts | 111° |
| 2026-05-04 09:47 | 36.78739 | 26.81291 | 29932 ft | 487 kts | 111° |
| 2026-05-04 09:49 | 36.69845 | 27.07018 | 25988 ft | 443 kts | 112° |
| 2026-05-04 09:49 | 36.68631 | 27.10518 | 25482 ft | 437 kts | 113° |
| 2026-05-04 09:49 | 36.67436 | 27.13954 | 24993 ft | 427 kts | 112° |
| 2026-05-04 09:51 | 36.60499 | 27.33761 | 22310 ft | 404 kts | 112° |
| 2026-05-04 09:51 | 36.59381 | 27.36935 | 21778 ft | 397 kts | 112° |
| 2026-05-04 09:51 | 36.58308 | 27.40087 | 21117 ft | 395 kts | 109° |
| 2026-05-04 09:51 | 36.57365 | 27.43332 | 20008 ft | 402 kts | 107° |
| 2026-05-04 09:52 | 36.56487 | 27.46638 | 19037 ft | 403 kts | 107° |
| 2026-05-04 09:52 | 36.55620 | 27.49970 | 18046 ft | 406 kts | 105° |
| 2026-05-04 09:52 | 36.54746 | 27.53304 | 17122 ft | 404 kts | 105° |
| 2026-05-04 09:52 | 36.53876 | 27.56580 | 16537 ft | 394 kts | 106° |
| 2026-05-04 09:53 | 36.53017 | 27.59763 | 16001 ft | 383 kts | 105° |
| 2026-05-04 09:53 | 36.52248 | 27.62590 | 15566 ft | 378 kts | 105° |
| 2026-05-04 09:53 | 36.51406 | 27.65679 | 15082 ft | 375 kts | 105° |
| 2026-05-04 09:53 | 36.50571 | 27.68732 | 14623 ft | 373 kts | 105° |
| 2026-05-04 09:54 | 36.49739 | 27.71769 | 14137 ft | 370 kts | 105° |
| 2026-05-04 09:54 | 36.48907 | 27.74801 | 13635 ft | 372 kts | 104° |
| 2026-05-04 09:54 | 36.48065 | 27.77866 | 13122 ft | 376 kts | 105° |
| 2026-05-04 09:54 | 36.47225 | 27.80921 | 12624 ft | 371 kts | 106° |
| 2026-05-04 09:55 | 36.46403 | 27.83893 | 12132 ft | 364 kts | 104° |
| 2026-05-04 09:55 | 36.45632 | 27.86679 | 11692 ft | 358 kts | 105° |
| 2026-05-04 09:55 | 36.44908 | 27.89295 | 11290 ft | 352 kts | 105° |
| 2026-05-04 09:55 | 36.44119 | 27.92140 | 10922 ft | 343 kts | 105° |
| 2026-05-04 09:56 | 36.43353 | 27.94884 | 10785 ft | 331 kts | 103° |
| 2026-05-04 09:56 | 36.42611 | 27.97557 | 10645 ft | 323 kts | 104° |
| 2026-05-04 09:56 | 36.41912 | 28.00065 | 10498 ft | 319 kts | 105° |
| 2026-05-04 09:56 | 36.41221 | 28.02560 | 10383 ft | 318 kts | 105° |
| 2026-05-04 09:57 | 36.40511 | 28.05119 | 10233 ft | 308 kts | 104° |
| 2026-05-04 09:57 | 36.39824 | 28.07588 | 10107 ft | 297 kts | 104° |
| 2026-05-04 09:57 | 36.39162 | 28.09971 | 9954 ft | 288 kts | 104° |
| 2026-05-04 09:57 | 36.38513 | 28.12305 | 9664 ft | 283 kts | 104° |
| 2026-05-04 09:58 | 36.37883 | 28.14566 | 9368 ft | 279 kts | 104° |
| 2026-05-04 09:58 | 36.37253 | 28.16833 | 9078 ft | 276 kts | 104° |
| 2026-05-04 09:58 | 36.36629 | 28.19064 | 8831 ft | 270 kts | 104° |
| 2026-05-04 10:00 | 36.32214 | 28.34814 | 7018 ft | 269 kts | 104° |
| 2026-05-04 10:00 | 36.31606 | 28.36980 | 6813 ft | 264 kts | 103° |
| 2026-05-04 10:02 | 36.38122 | 28.44559 | 5218 ft | 218 kts | 1° |
| 2026-05-04 10:04 | 36.46256 | 28.40212 | 3930 ft | 193 kts | 282° |
| 2026-05-04 10:04 | 36.46420 | 28.38607 | 3824 ft | 184 kts | 285° |
| 2026-05-04 10:04 | 36.46587 | 28.37058 | 3773 ft | 178 kts | 283° |
| 2026-05-04 10:04 | 36.46742 | 28.35548 | 3704 ft | 175 kts | 283° |
| 2026-05-04 10:05 | 36.46899 | 28.34043 | 3549 ft | 177 kts | 283° |
| 2026-05-04 10:05 | 36.47054 | 28.32542 | 3389 ft | 175 kts | 283° |
| 2026-05-04 10:05 | 36.47028 | 28.31035 | 3181 ft | 177 kts | 264° |
| 2026-05-04 10:05 | 36.46680 | 28.29580 | 2999 ft | 176 kts | 258° |
| 2026-05-04 10:06 | 36.46269 | 28.28144 | 2815 ft | 177 kts | 257° |
| 2026-05-04 10:06 | 36.45848 | 28.26722 | 2634 ft | 171 kts | 258° |
| 2026-05-04 10:06 | 36.45450 | 28.25357 | 2422 ft | 164 kts | 259° |
| 2026-05-04 10:08 | 36.43299 | 28.18089 | 1350 ft | 145 kts | 260° |
| 2026-05-04 10:08 | 36.42971 | 28.16935 | 1147 ft | 140 kts | 259° |
| 2026-05-04 10:08 | 36.42647 | 28.15826 | 977 ft | 134 kts | 259° |
| 2026-05-04 10:08 | 36.42329 | 28.14744 | 719 ft | 133 kts | 258° |
| 2026-05-04 10:09 | 36.42028 | 28.13686 | 549 ft | 130 kts | 259° |
| 2026-05-04 10:09 | 36.41714 | 28.12626 | 401 ft | 131 kts | 257° |
| 2026-05-04 10:09 | 36.41393 | 28.11525 | 255 ft | 139 kts | 259° |
| 2026-05-04 10:09 | 36.41062 | 28.10400 | 92 ft | 139 kts | 258° |
| 2026-05-04 10:10 | 36.40747 | 28.09326 | 30 ft | 117 kts | 251° |
| 2026-05-04 10:10 | 36.40599 | 28.08820 | 28 ft | 70 kts | 251° |
| 2026-05-04 10:10 | 36.40460 | 28.08705 | 27 ft | 21 kts | 126° |
| 2026-05-04 10:10 | 36.40382 | 28.08855 | 27 ft | 21 kts | 128° |
| 2026-05-04 10:11 | 36.40303 | 28.08939 | 27 ft | 0 kts | 120° |